HESC Airport Information

Runway Information
Runway 17 Length 6939 ft width 118 ft
Elevation 4299 ft Threshold 0 ft Heading 172
Runway 35 Length 6939 ft Width 118 ft
Elevation 4368 ft Threshold 0 ft Heading 352
Airport Frequencies
Type RDO Name Cathrine R Frequency 579 MHZ
Type TWR Name TWR Frequency 122.8 MHZ
Airport Navaids
Type NDB Name St Catherine Frequency 262 KHZ
Airport Weather Information & NOTAM
ADDS - METARS form results

(0252 UTC 05 December 2021)
Data provider http://aviationweather.gov/metar/data/
 
Forecast for: HESC (ST CATHERINE , EG)
Text: TAF HESC 042300Z 0500/0606 VRB03KT CAVOK
Forecast period: 0000 to 0700 UTC 05 December 2021
Forecast type: FROM: standard forecast or significant change
Winds: variable direction winds at 3 MPH (3 knots; 1.5 m/s)
Visibility: 6 or more miles (10+ km)
Ceiling: unknown
Clouds: missing
Weather: NSW  (no significant weather)
Text: BECMG 0507/0509 28014KT
Forecast period: 0700 UTC 05 December 2021 to 0600 UTC 06 December 2021
Forecast type: BECOMING: Conditions expected to become as follows by 0900 UTC 05 December 2021
Winds: from the W (280 degrees) at 16 MPH (14 knots; 7.2 m/s)
Visibility: 6 or more miles (10+ km)
Ceiling: unknown
Clouds: missing
Weather: NSW  (no significant weather)